ADDS METAR Data INFO
IDs: Format: Raw Decoded Include TAF

Data at: 1717 UTC 23 Oct 2017

KTIP 231655Z AUTO 34015G20KT 10SM SCT007 SCT012 OVC045 13/12 A2975 RMK AO2 T01290120
KTIP 231635Z AUTO 35012G19KT 10SM BKN007 OVC039 13/12 A2976 RMK AO2 T01280121
KTIP 231615Z AUTO 36012KT 10SM -RA BKN007 OVC037 13/12 A2979 RMK AO2 T01270121
KTIP 231555Z AUTO 34011KT 10SM -RA BKN007 BKN035 OVC050 13/12 A2981 RMK AO2 P0004 T01260121
KTIP 231535Z AUTO 35012KT 5SM RA BKN007 OVC050 13/12 A2982 RMK AO2 P0004 T01250121
KTIP 231515Z AUTO 33008KT 10SM -RA OVC005 13/12 A2982 RMK AO2 T01250121
KTIP 231455Z AUTO 36010G21KT 10SM -RA OVC005 13/12 A2979 RMK AO2 60001 T01250120
KTIP 231435Z AUTO 36015KT 10SM -RA OVC005 13/12 A2979 RMK AO2 T01250120
KTIP 231415Z AUTO 35011KT 10SM DZ OVC007 13/12 A2980 RMK AO2 T01250120
KTIP 231355Z AUTO 35011G17KT 4SM RA OVC007 13/12 A2980 RMK AO2 P0001 T01250121
KTIP 231335Z AUTO 36010KT 10SM RA OVC007 12/12 A2982 RMK AO2 T01220117
KTIP 231315Z AUTO 36010G17KT 10SM -RA OVC007 12/12 A2981 RMK AO2 T01220117
KTIP 231255Z AUTO 36016G21KT 10SM RA OVC005 12/12 A2980 RMK AO2 T01200115
KTIP 231235Z AUTO 02018G23KT 5SM -RA OVC005 12/12 A2979 RMK AO2 T01200115
KTIP 231215Z AUTO 36014G20KT 5SM -RA OVC005 12/11 A2982 RMK AO2 T01180114
KTIP 231155Z AUTO 36015G21KT 5SM RA OVC005 12/11 A2982 RMK AO2 P0001 60021 70059 T01170113 10128 20117
KTIP 231135Z AUTO 36016G20KT 10SM RA OVC005 12/11 A2983 RMK AO2 T01180113
KTIP 231115Z AUTO 36012G18KT 7SM -RA OVC005 12/12 A2983 RMK AO2 T01180115
KTIP 231055Z AUTO 35014G18KT 5SM -RA OVC005 12/12 A2983 RMK AO2 P0001 T01170115
KTIP 231035Z AUTO 35014G20KT 5SM -RA OVC005 12/12 A2983 RMK AO2 P0001 T01170115
KTIP 231015Z AUTO 34014G17KT 4SM RA OVC005 12/12 A2984 RMK AO2 P0001 T01200116
KTIP 230955Z AUTO 35013G17KT 3SM RA OVC005 12/12 A2985 RMK AO2 P0001 T01200117
KTIP 230935Z AUTO 34012G15KT 4SM RA OVC005 12/12 A2986 RMK AO2 T01220119
KTIP 230915Z AUTO 34012KT 7SM RA OVC005 13/12 A2986 RMK AO2 T01250121
KTIP 230855Z AUTO 34010KT 10SM -RA OVC005 13/12 A2986 RMK AO2 P0006 60018 T01250121
KTIP 230835Z AUTO 36011KT 10SM RA OVC005 13/12 A2986 RMK AO2 P0005 T01250122
KTIP 230815Z AUTO 36013KT 7SM +RA OVC005 13/13 A2986 RMK AO2 P0003 T01260125
KTIP 230755Z AUTO 36010KT 7SM RA OVC005 13/13 A2988 RMK AO2 P0006 T01270125
KTIP 230735Z AUTO 36010KT 7SM RA OVC005 13/13 A2989 RMK AO2 P0003 T01270125
KTIP 230715Z AUTO 01008KT 7SM RA OVC005 13/13 A2990 RMK AO2 P0001 T01270125
KTIP 230655Z AUTO 36008KT 10SM RA OVC005 13/13 A2991 RMK AO2 P0006 T01270125
KTIP 230635Z AUTO 36008KT 10SM RA BKN005 OVC016 13/13 A2992 RMK AO2 P0006 T01270125
KTIP 230615Z AUTO 01009KT 5SM +RA BKN005 OVC015 13/13 A2992 RMK AO2 P0004 T01270125
KTIP 230555Z AUTO 01009KT 7SM RA OVC005 13/13 A2993 RMK AO2 P0004 60038 T01270125 10127 20123 402240122
KTIP 230535Z AUTO 02009KT 10SM RA OVC005 13/12 A2993 RMK AO2 P0003 T01260124
KTIP 230515Z AUTO 03009KT 10SM RA OVC005 13/12 A2994 RMK AO2 P0001 T01250122
KTIP 230455Z AUTO 02008KT 7SM RA BKN005 BKN010 OVC024 13/12 A2995 RMK AO2 P0010 T01250122
KTIP 230435Z AUTO 03010KT 7SM RA BKN005 BKN008 OVC026 13/12 A2996 RMK AO2 P0008 T01250122
KTIP 230415Z AUTO 03009KT 5SM RA BKN005 BKN010 OVC026 13/12 A2997 RMK AO2 P0006 T01250121
KTIP 230355Z AUTO 02011KT 4SM +RA BKN005 BKN008 OVC024 13/12 A2997 RMK AO2 P0007 T01250121
KTIP 230335Z AUTO 02009KT 7SM -RA BKN005 OVC008 13/12 A2998 RMK AO2 P0003 T01250121
KTIP 230315Z AUTO 01007KT 5SM RA OVC005 13/12 A2999 RMK AO2 P0003 T01250121
KTIP 230255Z AUTO 36008KT 7SM RA OVC005 13/12 A2999 RMK AO2 P0006 60017 T01250121
KTIP 230235Z AUTO 01009KT 7SM RA OVC005 13/12 A2999 RMK AO2 P0004 T01250121
KTIP 230215Z AUTO 02010KT 7SM RA BKN005 OVC026 12/12 A2999 RMK AO2 P0002 T01230120
KTIP 230155Z AUTO 01009KT 5SM RA BKN005 OVC025 12/12 A3000 RMK AO2 P0008 T01230120
KTIP 230135Z AUTO 01009KT 5SM +RA OVC005 12/12 A3001 RMK AO2 P0004 T01230120
KTIP 230115Z AUTO 02010KT 4SM RA OVC005 13/12 A3001 RMK AO2 T01250120
KTIP 230055Z AUTO 01011KT 7SM RA OVC005 12/12 A3001 RMK AO2 P0003 T01230120
KTIP 230035Z AUTO 36012KT 7SM -RA OVC005 12/12 A3002 RMK AO2 P0002 T01230120
KTIP 230015Z AUTO 36014G17KT 5SM +RA OVC005 12/12 A3001 RMK AO2 P0002 T01230120
KTIP 222355Z AUTO 36013G17KT 7SM DZ OVC007 12/12 A3002 RMK AO2 T01230119 10218 20122
KTIP 222335Z AUTO 36013G18KT 5SM DZ OVC007 12/12 A3001 RMK AO2 T01230117
KTIP 222315Z AUTO 35013G19KT 7SM +DZ OVC007 12/12 A3001 RMK AO2 T01230116
KTIP 222255Z AUTO 35014G24KT 10SM OVC007 13/12 A3001 RMK AO2 T01250116
KTIP 222235Z AUTO 34012KT 10SM OVC007 13/12 A3001 RMK AO2 T01270122
KTIP 222215Z AUTO 34012KT 4SM -DZ OVC007 13/12 A3001 RMK AO2 T01280123
KTIP 222155Z AUTO 33012G19KT 3SM RA BKN007 OVC011 13/13 A3001 RMK AO2 T01300126
KTIP 222135Z AUTO 33012G18KT 3SM DZ BKN005 OVC010 13/13 A3001 RMK AO2 T01310125
KTIP 222115Z AUTO 31014G22KT 2 1/2SM DZ BKN005 OVC012 14/13 A3001 RMK AO2 T01350130
KTIP 222055Z AUTO 32017G23KT 4SM RA SCT007 BKN010 OVC018 14/13 A2999 RMK AO2 T01400132
KTIP 222035Z AUTO 19013G19KT 10SM BKN020 BKN028 OVC034 21/18 A2998 RMK AO2 T02100180
KTIP 222015Z AUTO 19014G21KT 10SM BKN020 BKN027 OVC036 21/18 A2997 RMK AO2 T02100178
KTIP 221955Z AUTO 19018G23KT 10SM BKN022 OVC027 21/18 A2997 RMK AO2 T02140176
KTIP 221935Z AUTO 19017G23KT 10SM OVC022 22/18 A2996 RMK AO2 T02150175
KTIP 221915Z AUTO 19015G21KT 10SM OVC024 22/17 A2996 RMK AO2 T02170172
KTIP 221855Z AUTO 19013G21KT 10SM OVC024 22/17 A2996 RMK AO2 T02180171
KTIP 221835Z AUTO 18013G18KT 10SM OVC024 22/17 A2996 RMK AO2 T02170171
KTIP 221815Z AUTO 19015G20KT 10SM OVC024 22/17 A2996 RMK AO2 T02170170
KTIP 221755Z AUTO 19016G24KT 10SM OVC024 22/17 A2996 RMK AO2 T02170171 10224 20175
KTIP 221735Z AUTO 18017G23KT 10SM OVC024 22/17 A2996 RMK AO2 T02200170
KTIP 221715Z AUTO 18016G27KT 10SM OVC026 22/17 A2996 RMK AO2 T02210168
KTIP 221655Z AUTO 17018G23KT 10SM OVC026 22/17 A2997 RMK AO2 T02220166
KTIP 221635Z AUTO 17017G23KT 10SM BKN026 BKN120 22/17 A2998 RMK AO2 T02150166
KTIP 221615Z AUTO 17017G22KT 10SM SCT026 SCT043 BKN100 21/17 A2998 RMK AO2 T02110170
KTIP 221555Z AUTO 17016G25KT 10SM -RA SCT024 BKN033 OVC110 21/17 A2999 RMK AO2 T02050174
KTIP 221535Z AUTO 18018G27KT 10SM BKN024 OVC110 22/17 A2999 RMK AO2 T02150165
KTIP 221515Z AUTO 18018G25KT 10SM BKN024 BKN100 21/16 A2999 RMK AO2 T02130163
KTIP 221455Z AUTO 17017G25KT 10SM BKN100 BKN120 21/16 A2999 RMK AO2 T02050159
KTIP 221435Z AUTO 17015G22KT 10SM BKN100 20/16 A2999 RMK AO2 T02000157
KTIP 221415Z AUTO 17016G22KT 10SM SCT038 OVC100 20/16 A2999 RMK AO2 T01950157
KTIP 221355Z AUTO 16012G21KT 10SM SCT110 20/16 A2999 RMK AO2 T01950156
KTIP 221335Z AUTO 16014G22KT 10SM SCT025 19/16 A2998 RMK AO2 T01930155
KTIP 221315Z AUTO 15013G19KT 10SM BKN025 19/16 A2999 RMK AO2 LTG DSNT N T01900155
KTIP 221255Z AUTO 15012KT 10SM SCT120 18/15 A2998 RMK AO2 T01820151
KTIP 221235Z AUTO 15013KT 10SM SCT049 SCT100 SCT120 18/15 A2998 RMK AO2 T01770147
KTIP 221215Z AUTO 15011G17KT 10SM CLR 18/15 A2998 RMK AO2 T01750146
KTIP 221155Z AUTO 15010G15KT 10SM SCT095 SCT110 18/15 A2998 RMK AO2 LTG DSNT NW T01760145 10192 20176
KTIP 221135Z AUTO 15013G18KT 10SM SCT095 OVC110 18/15 A2998 RMK AO2 LTG DSNT W THRU N T01780146
KTIP 221115Z AUTO 16011G17KT 10SM BKN095 OVC120 18/15 A2997 RMK AO2 LTG DSNT NW T01780145
KTIP 221055Z AUTO 15011G17KT 10SM BKN095 BKN120 18/14 A2998 RMK AO2 LTG DSNT NW T01780143
KTIP 221035Z AUTO 15011G14KT 10SM BKN095 OVC120 18/14 A2998 RMK AO2 LTG DSNT NW T01760142
KTIP 221015Z AUTO 15009KT 10SM BKN095 BKN120 18/14 A2998 RMK AO2 LTG DSNT W AND NW T01780142
KTIP 220955Z AUTO 14010KT 10SM OVC085 18/15 A2998 RMK AO2 LTG DSNT W AND NW T01800145
KTIP 220935Z AUTO 16011KT 10SM SCT085 BKN100 19/15 A2997 RMK AO2 LTG DSNT NW T01850148
KTIP 220915Z AUTO 16012G16KT 10SM SCT070 BKN100 19/15 A2997 RMK AO2 LTG DSNT W T01860148
KTIP 220855Z AUTO 17010KT 10SM BKN070 OVC100 19/15 A2997 RMK AO2 LTG DSNT W T01870150
KTIP 220835Z AUTO 16010G16KT 10SM SCT070 OVC080 19/15 A2998 RMK AO2 LTG DSNT NW T01870148
KTIP 220815Z AUTO 16009G15KT 10SM SCT080 18/15 A2999 RMK AO2 LTG DSNT W T01840147
KTIP 220755Z AUTO 16010KT 10SM CLR 18/15 A2999 RMK AO2 T01840146
KTIP 220735Z AUTO 17011KT 10SM CLR 19/15 A3001 RMK AO2 T01850145
KTIP 220715Z AUTO 16009KT 10SM CLR 19/15 A3001 RMK AO2 T01850145
KTIP 220655Z AUTO 16010KT 10SM SCT120 19/14 A3002 RMK AO2 T01870142
KTIP 220635Z AUTO 16010G15KT 10SM CLR 19/14 A3003 RMK AO2 T01900140
KTIP 220615Z AUTO 16009KT 10SM SCT065 SCT085 19/14 A3004 RMK AO2 T01900140
KTIP 220555Z AUTO 17010KT 10SM OVC065 19/14 A3005 RMK AO2 T01910140 10215 20177 402530119
KTIP 220535Z AUTO 17009KT 10SM OVC065 19/14 A3006 RMK AO2 T01880136